sensor_id;sensor_type;location;lat;lon;timestamp;P1;durP1;ratioP1;P2;durP2;ratioP2
6422;SDS011;3244;42.708;23.288;2022-12-18T00:00:39;6.55;;;5.95;;
6422;SDS011;3244;42.708;23.288;2022-12-18T00:03:06;6.40;;;5.90;;
6422;SDS011;3244;42.708;23.288;2022-12-18T00:05:34;9.32;;;6.22;;
6422;SDS011;3244;42.708;23.288;2022-12-18T00:08:01;6.35;;;5.88;;
6422;SDS011;3244;42.708;23.288;2022-12-18T00:10:28;7.18;;;6.57;;
6422;SDS011;3244;42.708;23.288;2022-12-18T00:12:55;7.93;;;7.00;;
6422;SDS011;3244;42.708;23.288;2022-12-18T00:15:22;7.25;;;6.63;;
6422;SDS011;3244;42.708;23.288;2022-12-18T00:17:49;7.07;;;6.43;;
6422;SDS011;3244;42.708;23.288;2022-12-18T00:20:16;6.93;;;6.32;;
6422;SDS011;3244;42.708;23.288;2022-12-18T00:22:48;7.13;;;6.47;;
6422;SDS011;3244;42.708;23.288;2022-12-18T00:25:14;7.57;;;6.55;;
6422;SDS011;3244;42.708;23.288;2022-12-18T00:27:41;7.43;;;6.82;;
6422;SDS011;3244;42.708;23.288;2022-12-18T00:30:08;8.43;;;7.63;;
6422;SDS011;3244;42.708;23.288;2022-12-18T00:32:36;8.45;;;7.65;;
6422;SDS011;3244;42.708;23.288;2022-12-18T00:35:03;7.50;;;6.85;;
6422;SDS011;3244;42.708;23.288;2022-12-18T00:37:30;6.07;;;5.57;;
6422;SDS011;3244;42.708;23.288;2022-12-18T00:40:00;8.00;;;7.25;;
6422;SDS011;3244;42.708;23.288;2022-12-18T00:42:27;7.38;;;6.68;;
6422;SDS011;3244;42.708;23.288;2022-12-18T00:45:11;7.45;;;6.78;;
6422;SDS011;3244;42.708;23.288;2022-12-18T00:47:38;7.95;;;7.25;;
6422;SDS011;3244;42.708;23.288;2022-12-18T00:50:05;6.57;;;6.07;;
6422;SDS011;3244;42.708;23.288;2022-12-18T00:52:33;7.03;;;6.50;;
6422;SDS011;3244;42.708;23.288;2022-12-18T00:55:01;6.97;;;6.32;;
6422;SDS011;3244;42.708;23.288;2022-12-18T00:57:27;7.00;;;6.43;;
6422;SDS011;3244;42.708;23.288;2022-12-18T00:59:54;8.00;;;6.97;;
6422;SDS011;3244;42.708;23.288;2022-12-18T01:02:21;7.95;;;6.90;;
6422;SDS011;3244;42.708;23.288;2022-12-18T01:04:47;8.32;;;7.15;;
6422;SDS011;3244;42.708;23.288;2022-12-18T01:07:14;7.53;;;6.82;;
6422;SDS011;3244;42.708;23.288;2022-12-18T01:09:41;8.55;;;7.65;;
6422;SDS011;3244;42.708;23.288;2022-12-18T01:12:09;7.03;;;6.40;;
6422;SDS011;3244;42.708;23.288;2022-12-18T01:14:36;11.68;;;7.45;;
6422;SDS011;3244;42.708;23.288;2022-12-18T01:17:02;8.07;;;7.22;;
6422;SDS011;3244;42.708;23.288;2022-12-18T01:19:29;9.07;;;7.72;;
6422;SDS011;3244;42.708;23.288;2022-12-18T01:21:56;7.90;;;7.35;;
6422;SDS011;3244;42.708;23.288;2022-12-18T01:24:23;9.18;;;7.85;;
6422;SDS011;3244;42.708;23.288;2022-12-18T01:26:50;9.40;;;7.82;;
6422;SDS011;3244;42.708;23.288;2022-12-18T01:29:18;8.52;;;7.63;;
6422;SDS011;3244;42.708;23.288;2022-12-18T01:31:45;8.55;;;7.55;;
6422;SDS011;3244;42.708;23.288;2022-12-18T01:34:11;10.80;;;7.93;;
6422;SDS011;3244;42.708;23.288;2022-12-18T01:36:39;8.60;;;7.80;;
6422;SDS011;3244;42.708;23.288;2022-12-18T01:39:07;8.85;;;7.75;;
6422;SDS011;3244;42.708;23.288;2022-12-18T01:41:36;8.05;;;7.35;;
6422;SDS011;3244;42.708;23.288;2022-12-18T01:47:21;8.48;;;7.47;;
6422;SDS011;3244;42.708;23.288;2022-12-18T01:49:51;7.97;;;7.28;;
6422;SDS011;3244;42.708;23.288;2022-12-18T01:52:18;11.13;;;8.13;;
6422;SDS011;3244;42.708;23.288;2022-12-18T01:54:46;9.90;;;8.95;;
6422;SDS011;3244;42.708;23.288;2022-12-18T01:57:15;8.35;;;7.55;;
6422;SDS011;3244;42.708;23.288;2022-12-18T01:59:42;8.73;;;7.93;;
6422;SDS011;3244;42.708;23.288;2022-12-18T02:02:11;8.82;;;7.20;;
6422;SDS011;3244;42.708;23.288;2022-12-18T02:04:40;8.05;;;7.25;;
6422;SDS011;3244;42.708;23.288;2022-12-18T02:07:07;7.53;;;6.57;;
6422;SDS011;3244;42.708;23.288;2022-12-18T02:09:43;8.25;;;7.32;;
6422;SDS011;3244;42.708;23.288;2022-12-18T02:12:16;8.20;;;7.40;;
6422;SDS011;3244;42.708;23.288;2022-12-18T02:14:45;8.65;;;7.22;;
6422;SDS011;3244;42.708;23.288;2022-12-18T02:17:21;7.00;;;6.38;;
6422;SDS011;3244;42.708;23.288;2022-12-18T02:19:57;7.68;;;6.93;;
6422;SDS011;3244;42.708;23.288;2022-12-18T02:22:35;7.25;;;6.55;;
6422;SDS011;3244;42.708;23.288;2022-12-18T02:25:17;7.72;;;6.97;;
6422;SDS011;3244;42.708;23.288;2022-12-18T02:27:56;6.70;;;6.10;;
6422;SDS011;3244;42.708;23.288;2022-12-18T02:30:28;7.47;;;6.88;;
6422;SDS011;3244;42.708;23.288;2022-12-18T02:32:58;7.35;;;6.75;;
6422;SDS011;3244;42.708;23.288;2022-12-18T02:35:28;7.35;;;6.60;;
6422;SDS011;3244;42.708;23.288;2022-12-18T02:37:56;7.22;;;6.63;;
6422;SDS011;3244;42.708;23.288;2022-12-18T02:40:25;10.07;;;7.38;;
6422;SDS011;3244;42.708;23.288;2022-12-18T02:42:53;7.25;;;6.60;;
6422;SDS011;3244;42.708;23.288;2022-12-18T02:45:21;7.97;;;7.05;;
6422;SDS011;3244;42.708;23.288;2022-12-18T02:47:48;7.93;;;6.60;;
6422;SDS011;3244;42.708;23.288;2022-12-18T02:50:17;9.43;;;6.93;;
6422;SDS011;3244;42.708;23.288;2022-12-18T02:52:50;6.88;;;6.28;;
6422;SDS011;3244;42.708;23.288;2022-12-18T02:55:28;8.48;;;6.97;;
6422;SDS011;3244;42.708;23.288;2022-12-18T02:58:08;7.15;;;6.53;;
6422;SDS011;3244;42.708;23.288;2022-12-18T03:00:43;7.13;;;6.28;;
6422;SDS011;3244;42.708;23.288;2022-12-18T03:03:18;7.53;;;6.82;;
6422;SDS011;3244;42.708;23.288;2022-12-18T03:05:51;10.07;;;6.88;;
6422;SDS011;3244;42.708;23.288;2022-12-18T03:08:22;11.18;;;7.32;;
6422;SDS011;3244;42.708;23.288;2022-12-18T03:10:52;10.13;;;7.70;;
6422;SDS011;3244;42.708;23.288;2022-12-18T03:13:25;7.10;;;6.45;;
6422;SDS011;3244;42.708;23.288;2022-12-18T03:15:58;9.27;;;7.13;;
6422;SDS011;3244;42.708;23.288;2022-12-18T03:18:28;10.05;;;6.95;;
6422;SDS011;3244;42.708;23.288;2022-12-18T03:20:58;10.52;;;6.15;;
6422;SDS011;3244;42.708;23.288;2022-12-18T03:23:29;8.48;;;7.35;;
6422;SDS011;3244;42.708;23.288;2022-12-18T03:26:07;9.10;;;6.93;;
6422;SDS011;3244;42.708;23.288;2022-12-18T03:28:37;8.13;;;7.43;;
6422;SDS011;3244;42.708;23.288;2022-12-18T03:31:09;8.00;;;7.20;;
6422;SDS011;3244;42.708;23.288;2022-12-18T03:33:39;7.47;;;6.03;;
6422;SDS011;3244;42.708;23.288;2022-12-18T03:36:10;7.88;;;7.07;;
6422;SDS011;3244;42.708;23.288;2022-12-18T03:38:37;6.97;;;6.28;;
6422;SDS011;3244;42.708;23.288;2022-12-18T03:41:06;8.27;;;6.75;;
6422;SDS011;3244;42.708;23.288;2022-12-18T03:43:40;6.90;;;6.30;;
6422;SDS011;3244;42.708;23.288;2022-12-18T03:46:17;7.47;;;6.75;;
6422;SDS011;3244;42.708;23.288;2022-12-18T03:48:52;7.40;;;6.75;;
6422;SDS011;3244;42.708;23.288;2022-12-18T03:51:26;7.40;;;6.70;;
6422;SDS011;3244;42.708;23.288;2022-12-18T03:54:01;7.32;;;6.55;;
6422;SDS011;3244;42.708;23.288;2022-12-18T03:56:31;6.60;;;6.00;;
6422;SDS011;3244;42.708;23.288;2022-12-18T03:59:02;8.63;;;7.78;;
6422;SDS011;3244;42.708;23.288;2022-12-18T04:01:32;7.05;;;6.35;;
6422;SDS011;3244;42.708;23.288;2022-12-18T04:04:01;8.88;;;7.97;;
6422;SDS011;3244;42.708;23.288;2022-12-18T04:06:30;8.80;;;7.80;;
6422;SDS011;3244;42.708;23.288;2022-12-18T04:08:58;8.00;;;7.20;;
6422;SDS011;3244;42.708;23.288;2022-12-18T04:11:25;8.90;;;7.95;;
6422;SDS011;3244;42.708;23.288;2022-12-18T04:13:54;12.50;;;8.10;;
6422;SDS011;3244;42.708;23.288;2022-12-18T04:16:22;10.57;;;7.77;;
6422;SDS011;3244;42.708;23.288;2022-12-18T04:18:50;10.97;;;9.07;;
6422;SDS011;3244;42.708;23.288;2022-12-18T04:21:17;12.95;;;9.63;;
6422;SDS011;3244;42.708;23.288;2022-12-18T04:23:44;9.40;;;8.10;;
6422;SDS011;3244;42.708;23.288;2022-12-18T04:26:11;10.63;;;8.60;;
6422;SDS011;3244;42.708;23.288;2022-12-18T04:28:38;9.15;;;8.02;;
6422;SDS011;3244;42.708;23.288;2022-12-18T04:31:05;9.67;;;8.67;;
6422;SDS011;3244;42.708;23.288;2022-12-18T04:33:31;9.48;;;8.25;;
6422;SDS011;3244;42.708;23.288;2022-12-18T04:35:59;12.48;;;9.50;;
6422;SDS011;3244;42.708;23.288;2022-12-18T04:38:26;11.20;;;9.95;;
6422;SDS011;3244;42.708;23.288;2022-12-18T04:40:53;15.02;;;9.70;;
6422;SDS011;3244;42.708;23.288;2022-12-18T04:43:20;12.13;;;9.02;;
6422;SDS011;3244;42.708;23.288;2022-12-18T04:45:46;12.10;;;9.63;;
6422;SDS011;3244;42.708;23.288;2022-12-18T04:48:13;11.88;;;9.52;;
6422;SDS011;3244;42.708;23.288;2022-12-18T04:50:40;13.57;;;10.23;;
6422;SDS011;3244;42.708;23.288;2022-12-18T04:53:08;14.20;;;9.95;;
6422;SDS011;3244;42.708;23.288;2022-12-18T04:55:34;15.55;;;10.55;;
6422;SDS011;3244;42.708;23.288;2022-12-18T04:58:01;14.10;;;11.03;;
6422;SDS011;3244;42.708;23.288;2022-12-18T05:00:28;13.33;;;10.60;;
6422;SDS011;3244;42.708;23.288;2022-12-18T05:02:54;14.10;;;10.60;;
6422;SDS011;3244;42.708;23.288;2022-12-18T05:05:21;13.45;;;9.80;;
6422;SDS011;3244;42.708;23.288;2022-12-18T05:07:48;19.30;;;11.40;;
6422;SDS011;3244;42.708;23.288;2022-12-18T05:10:16;13.10;;;11.27;;
6422;SDS011;3244;42.708;23.288;2022-12-18T05:12:43;15.77;;;11.20;;
6422;SDS011;3244;42.708;23.288;2022-12-18T05:15:39;14.23;;;10.70;;
6422;SDS011;3244;42.708;23.288;2022-12-18T05:18:06;20.65;;;12.27;;
6422;SDS011;3244;42.708;23.288;2022-12-18T05:20:33;13.50;;;10.57;;
6422;SDS011;3244;42.708;23.288;2022-12-18T05:23:00;15.50;;;11.73;;
6422;SDS011;3244;42.708;23.288;2022-12-18T05:25:27;14.65;;;11.07;;
6422;SDS011;3244;42.708;23.288;2022-12-18T05:27:54;14.23;;;11.20;;
6422;SDS011;3244;42.708;23.288;2022-12-18T05:30:20;14.63;;;11.07;;
6422;SDS011;3244;42.708;23.288;2022-12-18T05:32:48;16.17;;;11.47;;
6422;SDS011;3244;42.708;23.288;2022-12-18T05:35:15;15.88;;;11.57;;
6422;SDS011;3244;42.708;23.288;2022-12-18T05:37:42;17.33;;;12.48;;
6422;SDS011;3244;42.708;23.288;2022-12-18T05:40:09;13.60;;;10.73;;
6422;SDS011;3244;42.708;23.288;2022-12-18T05:42:37;14.77;;;11.32;;
6422;SDS011;3244;42.708;23.288;2022-12-18T05:45:04;17.15;;;11.63;;
6422;SDS011;3244;42.708;23.288;2022-12-18T05:47:31;16.00;;;11.30;;
6422;SDS011;3244;42.708;23.288;2022-12-18T05:50:00;15.13;;;11.27;;
6422;SDS011;3244;42.708;23.288;2022-12-18T05:52:26;17.45;;;12.02;;
6422;SDS011;3244;42.708;23.288;2022-12-18T05:54:53;14.95;;;11.60;;
6422;SDS011;3244;42.708;23.288;2022-12-18T05:57:20;17.30;;;11.90;;
6422;SDS011;3244;42.708;23.288;2022-12-18T05:59:46;17.42;;;11.48;;
6422;SDS011;3244;42.708;23.288;2022-12-18T06:02:13;37.67;;;22.83;;
6422;SDS011;3244;42.708;23.288;2022-12-18T06:04:40;17.13;;;12.82;;
6422;SDS011;3244;42.708;23.288;2022-12-18T06:07:08;17.38;;;12.50;;
6422;SDS011;3244;42.708;23.288;2022-12-18T06:09:35;19.13;;;12.60;;
6422;SDS011;3244;42.708;23.288;2022-12-18T06:12:01;15.90;;;12.00;;
6422;SDS011;3244;42.708;23.288;2022-12-18T06:14:28;16.95;;;12.57;;
6422;SDS011;3244;42.708;23.288;2022-12-18T06:16:55;15.88;;;11.85;;
6422;SDS011;3244;42.708;23.288;2022-12-18T06:19:22;17.92;;;12.38;;
6422;SDS011;3244;42.708;23.288;2022-12-18T06:21:48;18.55;;;13.20;;
6422;SDS011;3244;42.708;23.288;2022-12-18T06:24:17;16.40;;;13.32;;
6422;SDS011;3244;42.708;23.288;2022-12-18T06:26:44;18.73;;;12.13;;
6422;SDS011;3244;42.708;23.288;2022-12-18T06:29:11;17.90;;;11.98;;
6422;SDS011;3244;42.708;23.288;2022-12-18T06:31:37;21.95;;;12.23;;
6422;SDS011;3244;42.708;23.288;2022-12-18T06:34:04;17.92;;;12.18;;
6422;SDS011;3244;42.708;23.288;2022-12-18T06:36:31;15.93;;;11.93;;
6422;SDS011;3244;42.708;23.288;2022-12-18T06:38:58;12.82;;;10.40;;
6422;SDS011;3244;42.708;23.288;2022-12-18T06:41:26;17.83;;;11.25;;
6422;SDS011;3244;42.708;23.288;2022-12-18T06:43:53;15.48;;;12.30;;
6422;SDS011;3244;42.708;23.288;2022-12-18T06:46:20;11.70;;;9.95;;
6422;SDS011;3244;42.708;23.288;2022-12-18T06:48:47;23.48;;;14.75;;
6422;SDS011;3244;42.708;23.288;2022-12-18T06:51:16;14.75;;;11.00;;
6422;SDS011;3244;42.708;23.288;2022-12-18T06:53:43;15.27;;;10.98;;
6422;SDS011;3244;42.708;23.288;2022-12-18T06:56:10;14.05;;;10.55;;
6422;SDS011;3244;42.708;23.288;2022-12-18T06:58:38;14.50;;;11.07;;
6422;SDS011;3244;42.708;23.288;2022-12-18T07:01:06;15.45;;;11.98;;
6422;SDS011;3244;42.708;23.288;2022-12-18T07:03:34;15.18;;;10.77;;
6422;SDS011;3244;42.708;23.288;2022-12-18T07:06:01;13.00;;;10.40;;
6422;SDS011;3244;42.708;23.288;2022-12-18T07:08:29;16.27;;;11.52;;
6422;SDS011;3244;42.708;23.288;2022-12-18T07:10:56;17.90;;;12.90;;
6422;SDS011;3244;42.708;23.288;2022-12-18T07:13:22;28.77;;;17.77;;
6422;SDS011;3244;42.708;23.288;2022-12-18T07:15:50;26.25;;;16.58;;
6422;SDS011;3244;42.708;23.288;2022-12-18T07:18:17;18.77;;;13.57;;
6422;SDS011;3244;42.708;23.288;2022-12-18T07:20:44;21.87;;;14.50;;
6422;SDS011;3244;42.708;23.288;2022-12-18T07:23:11;24.37;;;13.53;;
6422;SDS011;3244;42.708;23.288;2022-12-18T07:25:38;17.33;;;13.60;;
6422;SDS011;3244;42.708;23.288;2022-12-18T07:28:04;23.93;;;14.40;;
6422;SDS011;3244;42.708;23.288;2022-12-18T07:30:31;21.77;;;14.07;;
6422;SDS011;3244;42.708;23.288;2022-12-18T07:32:59;24.97;;;15.70;;
6422;SDS011;3244;42.708;23.288;2022-12-18T07:35:26;22.23;;;14.07;;
6422;SDS011;3244;42.708;23.288;2022-12-18T07:37:53;22.27;;;14.95;;
6422;SDS011;3244;42.708;23.288;2022-12-18T07:40:19;21.33;;;14.15;;
6422;SDS011;3244;42.708;23.288;2022-12-18T07:42:46;19.20;;;13.77;;
6422;SDS011;3244;42.708;23.288;2022-12-18T07:45:13;21.42;;;12.25;;
6422;SDS011;3244;42.708;23.288;2022-12-18T07:47:40;21.42;;;14.02;;
6422;SDS011;3244;42.708;23.288;2022-12-18T07:50:09;26.67;;;15.13;;
6422;SDS011;3244;42.708;23.288;2022-12-18T07:52:35;18.23;;;13.68;;
6422;SDS011;3244;42.708;23.288;2022-12-18T07:55:02;21.95;;;14.85;;
6422;SDS011;3244;42.708;23.288;2022-12-18T07:57:29;21.83;;;14.27;;
6422;SDS011;3244;42.708;23.288;2022-12-18T07:59:56;21.10;;;15.23;;
6422;SDS011;3244;42.708;23.288;2022-12-18T08:02:23;17.92;;;13.85;;
6422;SDS011;3244;42.708;23.288;2022-12-18T08:04:49;22.52;;;15.15;;
6422;SDS011;3244;42.708;23.288;2022-12-18T08:07:18;23.15;;;15.40;;
6422;SDS011;3244;42.708;23.288;2022-12-18T08:09:44;20.35;;;15.10;;
6422;SDS011;3244;42.708;23.288;2022-12-18T08:12:11;23.83;;;14.52;;
6422;SDS011;3244;42.708;23.288;2022-12-18T08:14:38;23.15;;;14.27;;
6422;SDS011;3244;42.708;23.288;2022-12-18T08:17:04;28.88;;;17.60;;
6422;SDS011;3244;42.708;23.288;2022-12-18T08:19:31;23.42;;;15.73;;
6422;SDS011;3244;42.708;23.288;2022-12-18T08:21:58;22.67;;;13.65;;
6422;SDS011;3244;42.708;23.288;2022-12-18T08:24:27;26.80;;;17.60;;
6422;SDS011;3244;42.708;23.288;2022-12-18T08:26:53;22.90;;;14.27;;
6422;SDS011;3244;42.708;23.288;2022-12-18T08:29:22;20.70;;;13.93;;
6422;SDS011;3244;42.708;23.288;2022-12-18T08:31:48;20.08;;;14.35;;
6422;SDS011;3244;42.708;23.288;2022-12-18T08:34:15;22.73;;;14.65;;
6422;SDS011;3244;42.708;23.288;2022-12-18T08:36:42;22.05;;;14.07;;
6422;SDS011;3244;42.708;23.288;2022-12-18T08:39:09;18.80;;;12.95;;
6422;SDS011;3244;42.708;23.288;2022-12-18T08:41:37;20.20;;;13.85;;
6422;SDS011;3244;42.708;23.288;2022-12-18T08:44:04;18.30;;;13.55;;
6422;SDS011;3244;42.708;23.288;2022-12-18T08:46:48;24.65;;;16.83;;
6422;SDS011;3244;42.708;23.288;2022-12-18T08:49:14;22.05;;;14.40;;
6422;SDS011;3244;42.708;23.288;2022-12-18T08:51:41;18.40;;;13.52;;
6422;SDS011;3244;42.708;23.288;2022-12-18T08:54:08;26.83;;;12.80;;
6422;SDS011;3244;42.708;23.288;2022-12-18T08:56:38;19.20;;;12.70;;
6422;SDS011;3244;42.708;23.288;2022-12-18T08:59:05;20.35;;;12.85;;
6422;SDS011;3244;42.708;23.288;2022-12-18T09:01:31;25.60;;;15.50;;
6422;SDS011;3244;42.708;23.288;2022-12-18T09:03:58;18.05;;;12.80;;
6422;SDS011;3244;42.708;23.288;2022-12-18T09:06:25;22.33;;;13.85;;
6422;SDS011;3244;42.708;23.288;2022-12-18T09:08:52;16.38;;;11.73;;
6422;SDS011;3244;42.708;23.288;2022-12-18T09:11:20;15.43;;;12.18;;
6422;SDS011;3244;42.708;23.288;2022-12-18T09:13:49;16.77;;;11.90;;
6422;SDS011;3244;42.708;23.288;2022-12-18T09:16:16;16.15;;;11.57;;
6422;SDS011;3244;42.708;23.288;2022-12-18T09:18:44;26.27;;;15.88;;
6422;SDS011;3244;42.708;23.288;2022-12-18T09:21:11;19.80;;;12.80;;
6422;SDS011;3244;42.708;23.288;2022-12-18T09:23:39;17.85;;;12.93;;
6422;SDS011;3244;42.708;23.288;2022-12-18T09:26:06;21.02;;;12.35;;
6422;SDS011;3244;42.708;23.288;2022-12-18T09:28:33;16.27;;;11.95;;
6422;SDS011;3244;42.708;23.288;2022-12-18T09:31:04;18.48;;;12.07;;
6422;SDS011;3244;42.708;23.288;2022-12-18T09:33:33;15.82;;;11.88;;
6422;SDS011;3244;42.708;23.288;2022-12-18T09:36:00;19.77;;;11.40;;
6422;SDS011;3244;42.708;23.288;2022-12-18T09:38:28;16.30;;;12.43;;
6422;SDS011;3244;42.708;23.288;2022-12-18T09:40:56;17.92;;;11.52;;
6422;SDS011;3244;42.708;23.288;2022-12-18T09:43:26;17.88;;;10.88;;
6422;SDS011;3244;42.708;23.288;2022-12-18T09:45:57;14.95;;;11.15;;
6422;SDS011;3244;42.708;23.288;2022-12-18T09:48:31;18.02;;;12.25;;
6422;SDS011;3244;42.708;23.288;2022-12-18T09:51:03;12.40;;;10.20;;
6422;SDS011;3244;42.708;23.288;2022-12-18T09:53:35;15.95;;;10.63;;
6422;SDS011;3244;42.708;23.288;2022-12-18T09:56:06;16.92;;;11.20;;
6422;SDS011;3244;42.708;23.288;2022-12-18T09:58:39;17.52;;;11.52;;
6422;SDS011;3244;42.708;23.288;2022-12-18T10:01:10;14.10;;;10.40;;
6422;SDS011;3244;42.708;23.288;2022-12-18T10:03:39;13.65;;;10.63;;
6422;SDS011;3244;42.708;23.288;2022-12-18T10:06:07;19.73;;;13.00;;
6422;SDS011;3244;42.708;23.288;2022-12-18T10:08:41;16.63;;;10.73;;
6422;SDS011;3244;42.708;23.288;2022-12-18T10:11:21;15.85;;;10.27;;
6422;SDS011;3244;42.708;23.288;2022-12-18T10:13:56;14.90;;;10.35;;
6422;SDS011;3244;42.708;23.288;2022-12-18T10:16:29;15.63;;;11.57;;
6422;SDS011;3244;42.708;23.288;2022-12-18T10:19:11;16.40;;;11.73;;
6422;SDS011;3244;42.708;23.288;2022-12-18T10:21:51;18.48;;;11.35;;
6422;SDS011;3244;42.708;23.288;2022-12-18T10:24:24;20.25;;;11.65;;
6422;SDS011;3244;42.708;23.288;2022-12-18T10:26:58;15.48;;;10.43;;
6422;SDS011;3244;42.708;23.288;2022-12-18T10:29:36;18.33;;;13.25;;
6422;SDS011;3244;42.708;23.288;2022-12-18T10:32:04;14.02;;;9.93;;
6422;SDS011;3244;42.708;23.288;2022-12-18T10:34:32;13.27;;;10.60;;
6422;SDS011;3244;42.708;23.288;2022-12-18T10:36:59;14.13;;;10.00;;
6422;SDS011;3244;42.708;23.288;2022-12-18T10:39:27;19.55;;;12.05;;
6422;SDS011;3244;42.708;23.288;2022-12-18T10:41:59;16.83;;;11.57;;
6422;SDS011;3244;42.708;23.288;2022-12-18T10:44:36;20.05;;;11.32;;
6422;SDS011;3244;42.708;23.288;2022-12-18T10:47:03;19.30;;;12.07;;
6422;SDS011;3244;42.708;23.288;2022-12-18T10:49:34;19.70;;;11.60;;
6422;SDS011;3244;42.708;23.288;2022-12-18T10:52:11;17.42;;;11.77;;
6422;SDS011;3244;42.708;23.288;2022-12-18T10:54:45;16.58;;;10.98;;
6422;SDS011;3244;42.708;23.288;2022-12-18T10:57:15;21.80;;;11.88;;
6422;SDS011;3244;42.708;23.288;2022-12-18T10:59:49;16.05;;;11.13;;
6422;SDS011;3244;42.708;23.288;2022-12-18T11:02:24;17.35;;;11.60;;
6422;SDS011;3244;42.708;23.288;2022-12-18T11:04:55;15.13;;;10.15;;
6422;SDS011;3244;42.708;23.288;2022-12-18T11:07:22;14.32;;;10.45;;
6422;SDS011;3244;42.708;23.288;2022-12-18T11:09:59;12.23;;;10.40;;
6422;SDS011;3244;42.708;23.288;2022-12-18T11:12:27;17.20;;;10.98;;
6422;SDS011;3244;42.708;23.288;2022-12-18T11:14:55;20.85;;;12.32;;
6422;SDS011;3244;42.708;23.288;2022-12-18T11:17:24;18.05;;;11.93;;
6422;SDS011;3244;42.708;23.288;2022-12-18T11:19:56;16.83;;;11.40;;
6422;SDS011;3244;42.708;23.288;2022-12-18T11:22:25;15.52;;;11.45;;
6422;SDS011;3244;42.708;23.288;2022-12-18T11:24:54;15.80;;;11.75;;
6422;SDS011;3244;42.708;23.288;2022-12-18T11:27:24;17.35;;;11.93;;
6422;SDS011;3244;42.708;23.288;2022-12-18T11:29:51;16.92;;;11.95;;
6422;SDS011;3244;42.708;23.288;2022-12-18T11:32:30;18.13;;;11.95;;
6422;SDS011;3244;42.708;23.288;2022-12-18T11:35:08;16.42;;;11.90;;
6422;SDS011;3244;42.708;23.288;2022-12-18T11:37:41;15.55;;;10.27;;
6422;SDS011;3244;42.708;23.288;2022-12-18T11:40:16;16.33;;;11.55;;
6422;SDS011;3244;42.708;23.288;2022-12-18T11:42:47;17.92;;;11.68;;
6422;SDS011;3244;42.708;23.288;2022-12-18T11:48:09;16.67;;;11.13;;
6422;SDS011;3244;42.708;23.288;2022-12-18T11:50:47;17.30;;;10.70;;
6422;SDS011;3244;42.708;23.288;2022-12-18T11:53:16;14.75;;;10.60;;
6422;SDS011;3244;42.708;23.288;2022-12-18T11:55:47;14.98;;;10.48;;
6422;SDS011;3244;42.708;23.288;2022-12-18T11:58:33;17.83;;;11.95;;
6422;SDS011;3244;42.708;23.288;2022-12-18T12:01:13;18.77;;;13.30;;
6422;SDS011;3244;42.708;23.288;2022-12-18T12:03:51;36.97;;;19.85;;
6422;SDS011;3244;42.708;23.288;2022-12-18T12:06:34;20.20;;;13.43;;
6422;SDS011;3244;42.708;23.288;2022-12-18T12:09:12;16.65;;;11.65;;
6422;SDS011;3244;42.708;23.288;2022-12-18T12:11:49;21.15;;;11.35;;
6422;SDS011;3244;42.708;23.288;2022-12-18T12:14:28;22.35;;;11.20;;
6422;SDS011;3244;42.708;23.288;2022-12-18T12:17:06;16.48;;;11.70;;
6422;SDS011;3244;42.708;23.288;2022-12-18T12:19:42;19.85;;;12.23;;
6422;SDS011;3244;42.708;23.288;2022-12-18T12:22:17;16.25;;;11.32;;
6422;SDS011;3244;42.708;23.288;2022-12-18T12:24:57;17.40;;;12.10;;
6422;SDS011;3244;42.708;23.288;2022-12-18T12:27:36;17.30;;;11.98;;
6422;SDS011;3244;42.708;23.288;2022-12-18T12:30:14;22.20;;;13.55;;
6422;SDS011;3244;42.708;23.288;2022-12-18T12:32:58;27.27;;;17.08;;
6422;SDS011;3244;42.708;23.288;2022-12-18T12:35:38;19.23;;;12.63;;
6422;SDS011;3244;42.708;23.288;2022-12-18T12:38:14;19.70;;;12.90;;
6422;SDS011;3244;42.708;23.288;2022-12-18T12:40:45;17.88;;;12.50;;
6422;SDS011;3244;42.708;23.288;2022-12-18T12:43:20;16.80;;;12.35;;
6422;SDS011;3244;42.708;23.288;2022-12-18T12:45:52;20.38;;;13.43;;
6422;SDS011;3244;42.708;23.288;2022-12-18T12:48:24;17.92;;;12.23;;
6422;SDS011;3244;42.708;23.288;2022-12-18T12:51:00;18.92;;;12.70;;
6422;SDS011;3244;42.708;23.288;2022-12-18T12:53:30;21.02;;;13.65;;
6422;SDS011;3244;42.708;23.288;2022-12-18T12:56:02;20.20;;;13.65;;
6422;SDS011;3244;42.708;23.288;2022-12-18T12:58:31;19.38;;;12.07;;
6422;SDS011;3244;42.708;23.288;2022-12-18T13:01:08;14.15;;;11.15;;
6422;SDS011;3244;42.708;23.288;2022-12-18T13:03:43;14.68;;;12.00;;
6422;SDS011;3244;42.708;23.288;2022-12-18T13:06:18;16.33;;;11.10;;
6422;SDS011;3244;42.708;23.288;2022-12-18T13:08:54;16.30;;;10.57;;
6422;SDS011;3244;42.708;23.288;2022-12-18T13:11:34;16.63;;;11.63;;
6422;SDS011;3244;42.708;23.288;2022-12-18T13:14:21;18.42;;;12.05;;
6422;SDS011;3244;42.708;23.288;2022-12-18T13:16:50;24.27;;;15.65;;
6422;SDS011;3244;42.708;23.288;2022-12-18T13:19:21;17.92;;;12.63;;
6422;SDS011;3244;42.708;23.288;2022-12-18T13:21:53;13.88;;;10.95;;
6422;SDS011;3244;42.708;23.288;2022-12-18T13:24:24;15.10;;;11.10;;
6422;SDS011;3244;42.708;23.288;2022-12-18T13:26:54;15.88;;;11.70;;
6422;SDS011;3244;42.708;23.288;2022-12-18T13:29:39;29.25;;;16.10;;
6422;SDS011;3244;42.708;23.288;2022-12-18T13:32:19;22.52;;;11.90;;
6422;SDS011;3244;42.708;23.288;2022-12-18T13:34:48;18.45;;;12.95;;
6422;SDS011;3244;42.708;23.288;2022-12-18T13:43:19;16.23;;;11.35;;
6422;SDS011;3244;42.708;23.288;2022-12-18T13:45:58;19.17;;;12.57;;
6422;SDS011;3244;42.708;23.288;2022-12-18T13:48:28;14.35;;;11.10;;
6422;SDS011;3244;42.708;23.288;2022-12-18T13:50:59;16.73;;;12.88;;
6422;SDS011;3244;42.708;23.288;2022-12-18T13:53:29;18.58;;;12.38;;
6422;SDS011;3244;42.708;23.288;2022-12-18T13:55:59;20.58;;;11.25;;
6422;SDS011;3244;42.708;23.288;2022-12-18T13:58:27;21.27;;;12.35;;
6422;SDS011;3244;42.708;23.288;2022-12-18T14:00:54;15.10;;;10.40;;
6422;SDS011;3244;42.708;23.288;2022-12-18T14:03:22;18.58;;;12.05;;
6422;SDS011;3244;42.708;23.288;2022-12-18T14:05:54;15.45;;;10.90;;
6422;SDS011;3244;42.708;23.288;2022-12-18T14:08:25;13.57;;;11.05;;
6422;SDS011;3244;42.708;23.288;2022-12-18T14:10:58;12.70;;;10.20;;
6422;SDS011;3244;42.708;23.288;2022-12-18T14:13:28;12.65;;;9.50;;
6422;SDS011;3244;42.708;23.288;2022-12-18T14:15:59;16.05;;;11.27;;
6422;SDS011;3244;42.708;23.288;2022-12-18T14:18:29;13.30;;;9.95;;
6422;SDS011;3244;42.708;23.288;2022-12-18T14:21:02;16.35;;;10.65;;
6422;SDS011;3244;42.708;23.288;2022-12-18T14:23:31;16.67;;;10.50;;
6422;SDS011;3244;42.708;23.288;2022-12-18T14:26:00;21.05;;;11.50;;
6422;SDS011;3244;42.708;23.288;2022-12-18T14:28:29;21.88;;;11.98;;
6422;SDS011;3244;42.708;23.288;2022-12-18T14:30:56;16.77;;;11.40;;
6422;SDS011;3244;42.708;23.288;2022-12-18T14:33:23;15.98;;;11.13;;
6422;SDS011;3244;42.708;23.288;2022-12-18T14:35:53;18.70;;;10.48;;
6422;SDS011;3244;42.708;23.288;2022-12-18T14:38:22;16.95;;;11.10;;
6422;SDS011;3244;42.708;23.288;2022-12-18T14:40:52;14.85;;;9.68;;
6422;SDS011;3244;42.708;23.288;2022-12-18T14:43:19;16.40;;;10.55;;
6422;SDS011;3244;42.708;23.288;2022-12-18T14:45:48;13.68;;;9.15;;
6422;SDS011;3244;42.708;23.288;2022-12-18T14:48:16;14.00;;;9.82;;
6422;SDS011;3244;42.708;23.288;2022-12-18T14:50:45;13.00;;;9.45;;
6422;SDS011;3244;42.708;23.288;2022-12-18T14:53:22;12.38;;;8.52;;
6422;SDS011;3244;42.708;23.288;2022-12-18T14:55:59;18.63;;;13.05;;
6422;SDS011;3244;42.708;23.288;2022-12-18T14:58:26;18.77;;;11.15;;
6422;SDS011;3244;42.708;23.288;2022-12-18T15:00:55;15.27;;;10.50;;
6422;SDS011;3244;42.708;23.288;2022-12-18T15:03:22;14.57;;;9.60;;
6422;SDS011;3244;42.708;23.288;2022-12-18T15:05:49;13.25;;;9.80;;
6422;SDS011;3244;42.708;23.288;2022-12-18T15:08:29;11.25;;;9.27;;
6422;SDS011;3244;42.708;23.288;2022-12-18T15:11:00;13.45;;;9.40;;